Time;durP1;ratioP1;P1;durP2;ratioP2;P2;SDS_P1;SDS_P2;PMS_P1;PMS_P2;Temp;Humidity;BMP_temperature;BMP_pressure;BME280_temperature;BME280_humidity;BME280_pressure;Samples;Min_cycle;Max_cycle;Signal;HPM_P1;HPM_P2
2022/12/29 00:00:09;;;;;;;5.13;4.63;;;11.60;99.90;;;;;;4979812;28;95667;-76
2022/12/29 00:02:40;;;;;;;4.95;4.50;;;11.60;99.90;;;;;;4981346;28;96509;-76
2022/12/29 00:05:07;;;;;;;5.10;4.60;;;11.60;99.90;;;;;;4997979;28;92553;-76
2022/12/29 00:07:37;;;;;;;5.40;4.90;;;11.50;99.90;;;;;;4997407;28;92484;-76
2022/12/29 00:10:05;;;;;;;5.20;4.78;;;11.50;99.90;;;;;;4997583;28;93343;-76
2022/12/29 00:15:36;;;;;;;5.30;4.80;;;11.50;99.90;;;;;;4980620;28;96042;-76
2022/12/29 00:15:37;;;;;;;5.68;5.25;;;11.50;99.90;;;;;;5000524;28;92676;-76
2022/12/29 00:18:05;;;;;;;5.68;4.82;;;11.50;99.90;;;;;;5016001;28;91611;-76
2022/12/29 00:44:04;;;;;;;5.93;4.70;;;11.50;99.90;;;;;;5015395;28;93061;-76
2022/12/29 00:45:40;;;;;;;5.68;5.18;;;11.60;99.90;;;;;;4999957;28;93013;-76
2022/12/29 00:48:07;;;;;;;5.50;5.10;;;11.60;99.90;;;;;;5014750;28;92705;-76
2022/12/29 00:50:34;;;;;;;6.10;5.60;;;11.60;99.90;;;;;;4997219;28;92559;-76
2022/12/29 00:53:01;;;;;;;5.60;5.10;;;11.60;99.90;;;;;;5015664;28;95782;-76
2022/12/29 00:55:28;;;;;;;5.53;5.13;;;11.60;99.90;;;;;;4999942;28;97924;-76
2022/12/29 00:57:55;;;;;;;5.63;4.88;;;11.70;99.90;;;;;;4983878;28;92651;-76
2022/12/29 01:00:22;;;;;;;4.57;4.28;;;11.70;99.90;;;;;;5018377;28;92431;-76
2022/12/29 01:02:49;;;;;;;5.22;4.72;;;11.70;99.90;;;;;;4999807;28;95427;-76
2022/12/29 01:05:16;;;;;;;5.20;4.80;;;11.70;99.90;;;;;;5000278;28;95518;-76
2022/12/29 01:07:43;;;;;;;4.63;4.22;;;11.70;99.90;;;;;;4999897;28;92665;-76
2022/12/29 01:10:10;;;;;;;5.22;4.78;;;11.70;99.90;;;;;;5000402;28;91740;-76
2022/12/29 01:12:40;;;;;;;4.75;4.35;;;11.70;99.90;;;;;;5000089;28;96050;-76
2022/12/29 01:15:12;;;;;;;;;;;11.80;99.90;;;;;;5000382;28;96064;-76
2022/12/29 01:17:41;;;;;;;5.38;4.50;;;11.70;99.90;;;;;;4999819;28;95357;-76
2022/12/29 01:20:08;;;;;;;5.15;4.30;;;11.70;99.90;;;;;;5000044;28;92676;-76
2022/12/29 01:22:35;;;;;;;4.32;3.92;;;11.70;99.90;;;;;;4999846;28;96004;-76
2022/12/29 01:25:03;;;;;;;4.53;4.13;;;11.70;99.90;;;;;;4999527;28;95853;-76
2022/12/29 01:27:30;;;;;;;4.57;4.18;;;11.80;99.90;;;;;;4999758;28;92547;-76
2022/12/29 01:29:57;;;;;;;6.10;4.00;;;11.80;99.90;;;;;;4999878;28;92472;-76
2022/12/29 01:32:24;;;;;;;4.43;4.07;;;11.80;99.90;;;;;;4999525;28;96170;-76
2022/12/29 01:34:51;;;;;;;4.53;4.13;;;11.80;99.90;;;;;;5017875;28;92407;-76
2022/12/29 01:37:18;;;;;;;4.13;3.78;;;11.70;99.90;;;;;;4999663;28;92433;-76
2022/12/29 01:39:45;;;;;;;3.70;3.40;;;11.70;99.90;;;;;;4982894;28;92601;-76
2022/12/29 01:42:17;;;;;;;3.28;3.08;;;11.70;99.90;;;;;;4998600;28;95992;-76
2022/12/29 01:44:58;;;;;;;3.47;3.28;;;11.80;99.90;;;;;;4999695;28;95772;-76
2022/12/29 01:47:33;;;;;;;3.67;3.38;;;11.80;99.90;;;;;;5017742;28;93083;-76
2022/12/29 01:50:24;;;;;;;3.72;3.35;;;11.80;99.90;;;;;;4999285;28;92555;-76
2022/12/29 01:52:57;;;;;;;3.40;3.10;;;11.90;99.90;;;;;;4998951;28;96032;-76
2022/12/29 01:55:26;;;;;;;3.35;3.05;;;11.90;99.90;;;;;;4999413;28;95766;-76
2022/12/29 01:57:56;;;;;;;3.63;3.35;;;11.90;99.90;;;;;;4982877;28;93011;-76
2022/12/29 02:00:23;;;;;;;3.60;3.30;;;11.90;99.90;;;;;;4983151;28;91829;-76
2022/12/29 02:02:54;;;;;;;4.78;3.63;;;11.90;99.90;;;;;;4998680;28;94847;-76
2022/12/29 02:05:51;;;;;;;3.53;3.22;;;12.00;99.90;;;;;;5017292;28;93049;-76
2022/12/29 02:08:22;;;;;;;4.38;3.30;;;12.10;99.90;;;;;;5016326;28;94738;-76
2022/12/29 02:10:49;;;;;;;3.13;2.80;;;12.00;99.90;;;;;;4999042;28;92483;-76
2022/12/29 02:13:17;;;;;;;3.60;3.30;;;12.00;99.90;;;;;;4999386;28;93560;-76
2022/12/29 02:16:21;;;;;;;3.70;3.40;;;12.10;99.90;;;;;;4998932;28;95827;-76
2022/12/29 02:19:12;;;;;;;4.45;3.15;;;12.10;99.90;;;;;;4998981;28;92423;-77
2022/12/29 02:21:43;;;;;;;3.03;2.72;;;12.10;99.90;;;;;;4998931;28;92450;-76
2022/12/29 02:24:36;;;;;;;3.47;3.13;;;12.00;99.90;;;;;;4998425;28;96291;-76
2022/12/29 02:27:25;;;;;;;3.53;2.90;;;12.10;99.90;;;;;;4998830;28;95336;-76
2022/12/29 02:30:03;;;;;;;3.40;3.10;;;12.10;99.90;;;;;;4982301;28;92400;-76
2022/12/29 02:32:36;;;;;;;2.80;2.60;;;12.10;99.90;;;;;;4998789;28;92522;-76
2022/12/29 02:35:33;;;;;;;2.77;2.40;;;12.20;99.90;;;;;;4997300;28;98165;-76
2022/12/29 02:38:00;;;;;;;2.75;2.55;;;12.20;99.90;;;;;;4981799;28;97892;-76
2022/12/29 02:40:50;;;;;;;3.33;2.22;;;12.20;99.90;;;;;;5017081;28;92972;-76
2022/12/29 02:43:22;;;;;;;2.28;2.08;;;12.20;99.90;;;;;;4998722;28;92465;-76
2022/12/29 02:45:55;;;;;;;2.50;2.30;;;12.20;99.90;;;;;;4998480;28;95465;-76
2022/12/29 02:48:52;;;;;;;3.77;2.30;;;12.20;99.90;;;;;;5016760;28;92931;-76
2022/12/29 02:51:26;;;;;;;3.13;2.75;;;12.20;99.90;;;;;;4994679;28;92620;-76
2022/12/29 02:56:41;;;;;;;2.90;2.70;;;12.20;99.90;;;;;;5016196;28;93208;-76
2022/12/29 02:59:09;;;;;;;3.33;2.70;;;12.10;99.90;;;;;;4998160;28;95550;-77
2022/12/29 03:02:16;;;;;;;2.85;2.65;;;12.10;99.90;;;;;;4997175;28;94844;-76
2022/12/29 03:04:50;;;;;;;2.40;2.20;;;12.10;99.90;;;;;;5015025;28;92614;-76
2022/12/29 03:07:47;;;;;;;2.78;2.47;;;12.10;99.90;;;;;;4997699;28;94179;-76
2022/12/29 03:10:29;;;;;;;2.78;2.20;;;12.10;99.90;;;;;;4965160;28;95669;-76
2022/12/29 03:16:04;;;;;;;2.85;2.17;;;12.00;99.90;;;;;;5014159;28;93053;-76
2022/12/29 03:18:44;;;;;;;2.30;2.20;;;12.00;99.90;;;;;;4997933;28;95118;-76
2022/12/29 03:22:26;;;;;;;2.85;2.65;;;12.00;99.90;;;;;;5016398;28;92843;-76
2022/12/29 03:24:22;;;;;;;2.33;2.00;;;12.10;99.90;;;;;;4997661;28;92540;-76
2022/12/29 03:26:53;;;;;;;3.05;1.80;;;12.00;99.90;;;;;;4981521;28;92504;-76
2022/12/29 03:29:21;;;;;;;2.45;2.25;;;12.00;99.90;;;;;;4996452;28;98334;-76
2022/12/29 03:31:51;;;;;;;2.92;2.10;;;11.90;99.90;;;;;;4981451;28;97779;-76
2022/12/29 03:34:21;;;;;;;1.80;1.70;;;11.90;99.90;;;;;;4998279;28;92486;-76
2022/12/29 03:36:55;;;;;;;1.88;1.77;;;11.90;99.90;;;;;;4997791;28;92473;-76
2022/12/29 03:39:23;;;;;;;1.70;1.60;;;11.90;99.90;;;;;;4997335;28;95771;-76
2022/12/29 03:41:57;;;;;;;2.00;1.85;;;11.90;99.90;;;;;;4997901;28;92730;-76
2022/12/29 03:44:36;;;;;;;1.95;1.85;;;11.90;99.90;;;;;;4997762;28;92452;-76
2022/12/29 03:47:04;;;;;;;3.83;1.90;;;12.00;99.90;;;;;;4998043;28;92399;-76
2022/12/29 03:49:31;;;;;;;2.10;1.90;;;11.90;99.90;;;;;;4997398;28;95467;-76
2022/12/29 03:51:58;;;;;;;1.92;1.75;;;11.90;99.90;;;;;;4997587;28;95173;-76
2022/12/29 03:54:26;;;;;;;2.10;1.90;;;12.00;99.90;;;;;;4980240;28;94914;-76
2022/12/29 03:56:53;;;;;;;2.28;2.00;;;11.90;99.90;;;;;;4997645;28;92584;-76
2022/12/29 03:59:31;;;;;;;2.50;1.70;;;11.90;99.90;;;;;;4997402;28;94617;-76
2022/12/29 04:01:58;;;;;;;2.25;1.83;;;11.80;99.90;;;;;;4997408;28;95644;-76
2022/12/29 04:04:25;;;;;;;2.92;1.70;;;11.80;99.90;;;;;;4980703;28;92510;-76
2022/12/29 04:06:52;;;;;;;3.90;1.92;;;11.80;99.90;;;;;;4996901;28;94422;-76
2022/12/29 04:09:19;;;;;;;2.70;1.85;;;11.80;99.90;;;;;;4980631;28;96017;-76
2022/12/29 04:11:48;;;;;;;2.40;1.90;;;11.80;99.90;;;;;;4981714;28;95599;-76
2022/12/29 04:14:16;;;;;;;3.13;1.90;;;11.80;99.90;;;;;;4997174;28;92592;-76
2022/12/29 04:16:43;;;;;;;3.28;1.83;;;11.80;99.90;;;;;;5015437;28;92503;-76
2022/12/29 04:19:12;;;;;;;3.80;1.90;;;11.90;99.90;;;;;;4995664;28;98173;-76
2022/12/29 04:21:41;;;;;;;5.75;1.60;;;11.90;99.90;;;;;;4997184;28;97718;-76
2022/12/29 04:24:08;;;;;;;1.63;1.52;;;11.80;99.90;;;;;;4997007;28;93015;-76
2022/12/29 04:26:39;;;;;;;3.63;1.30;;;11.80;99.90;;;;;;4999102;28;92548;-76
2022/12/29 04:29:20;;;;;;;2.15;1.20;;;11.80;99.90;;;;;;4985904;28;94228;-76
2022/12/29 04:32:07;;;;;;;1.13;0.90;;;11.80;99.90;;;;;;4992445;28;92965;-76
2022/12/29 04:34:38;;;;;;;1.90;0.75;;;11.70;99.90;;;;;;5000990;28;92584;-76
2022/12/29 04:37:06;;;;;;;2.20;1.10;;;11.70;99.90;;;;;;4984501;28;91623;-76
2022/12/29 04:39:34;;;;;;;1.40;0.80;;;11.70;99.90;;;;;;5000477;28;96806;-76
2022/12/29 04:42:02;;;;;;;2.47;1.30;;;11.70;99.90;;;;;;5000423;28;94029;-76
2022/12/29 04:44:29;;;;;;;2.28;0.70;;;11.70;99.90;;;;;;4999139;28;94910;-76
2022/12/29 04:47:11;;;;;;;2.22;0.95;;;11.60;99.90;;;;;;5002374;28;92525;-76
2022/12/29 04:50:10;;;;;;;1.17;1.00;;;11.50;99.90;;;;;;5005444;28;93066;-76
2022/12/29 04:52:43;;;;;;;2.67;1.15;;;11.40;99.90;;;;;;4984640;28;94789;-76
2022/12/29 04:55:12;;;;;;;2.25;1.10;;;11.30;99.90;;;;;;4984372;28;92484;-76
2022/12/29 04:57:40;;;;;;;2.30;1.27;;;11.20;99.90;;;;;;4984302;28;92723;-76
2022/12/29 05:00:09;;;;;;;2.80;1.35;;;11.20;99.90;;;;;;4983869;28;96140;-76
2022/12/29 05:02:37;;;;;;;3.22;1.52;;;11.10;99.90;;;;;;5000345;28;95428;-76
2022/12/29 05:05:05;;;;;;;1.30;1.20;;;11.10;99.90;;;;;;4983984;28;92482;-76
2022/12/29 05:07:35;;;;;;;2.13;1.55;;;11.00;99.90;;;;;;4999418;28;95735;-76
2022/12/29 05:10:03;;;;;;;2.97;1.50;;;11.00;99.90;;;;;;4998722;28;98302;-76
2022/12/29 05:12:34;;;;;;;4.03;1.55;;;11.00;99.90;;;;;;4983310;28;97776;-76
2022/12/29 05:15:02;;;;;;;4.43;1.30;;;11.00;99.90;;;;;;4983758;28;92511;-76
2022/12/29 05:17:30;;;;;;;5.20;1.63;;;10.90;99.90;;;;;;4999695;28;92460;-76
2022/12/29 05:19:57;;;;;;;5.65;1.17;;;10.90;99.90;;;;;;4999870;28;95502;-76
2022/12/29 05:22:24;;;;;;;5.55;1.45;;;10.90;99.90;;;;;;4999659;28;95310;-76
2022/12/29 05:24:52;;;;;;;3.80;1.10;;;10.90;99.90;;;;;;5000087;28;92388;-76
2022/12/29 05:27:19;;;;;;;4.40;1.52;;;10.90;99.90;;;;;;4983613;28;92357;-76
2022/12/29 05:29:59;;;;;;;3.45;1.00;;;10.80;99.90;;;;;;4984942;28;96149;-76
2022/12/29 05:32:26;;;;;;;6.68;1.52;;;10.80;99.90;;;;;;4999370;28;94609;-76
2022/12/29 05:34:54;;;;;;;7.32;1.52;;;10.80;99.90;;;;;;4982241;28;95087;-76
2022/12/29 05:37:21;;;;;;;6.38;1.67;;;10.80;99.90;;;;;;4982801;28;92544;-76
2022/12/29 05:39:48;;;;;;;4.13;1.25;;;10.80;99.90;;;;;;4983038;28;95527;-76
2022/12/29 05:42:15;;;;;;;6.53;1.33;;;10.80;99.90;;;;;;4999527;28;95508;-76
2022/12/29 05:44:58;;;;;;;4.07;1.55;;;10.80;99.90;;;;;;4999696;28;92461;-76
2022/12/29 05:47:43;;;;;;;4.93;1.38;;;10.80;99.90;;;;;;5016563;28;92428;-76
2022/12/29 05:50:25;;;;;;;5.72;1.77;;;10.70;99.90;;;;;;5001301;28;92894;-76
2022/12/29 05:53:07;;;;;;;4.13;1.50;;;10.70;99.90;;;;;;5002492;28;93164;-76
2022/12/29 05:55:36;;;;;;;4.30;1.20;;;10.60;99.90;;;;;;5017481;28;92479;-76
2022/12/29 05:58:04;;;;;;;7.00;2.05;;;10.60;99.90;;;;;;4999563;28;92525;-76
2022/12/29 06:00:32;;;;;;;5.45;1.45;;;10.60;99.90;;;;;;4981137;28;96871;-76
2022/12/29 06:02:59;;;;;;;5.03;1.30;;;10.60;99.90;;;;;;4999138;28;97954;-76
2022/12/29 06:05:26;;;;;;;4.90;1.20;;;10.50;99.90;;;;;;4998965;28;92531;-76
2022/12/29 06:07:53;;;;;;;3.90;1.67;;;10.50;99.90;;;;;;4999074;28;92485;-76
2022/12/29 06:10:20;;;;;;;9.55;1.95;;;10.50;99.90;;;;;;4998871;28;95484;-76
2022/12/29 06:12:53;;;;;;;4.75;1.80;;;10.50;99.90;;;;;;4983389;28;93907;-76
2022/12/29 06:15:20;;;;;;;2.10;1.40;;;10.50;99.90;;;;;;4982688;28;92482;-76
2022/12/29 06:17:49;;;;;;;5.40;1.70;;;10.50;99.90;;;;;;4999393;28;91809;-76
2022/12/29 06:20:17;;;;;;;7.35;2.10;;;10.50;99.90;;;;;;4998846;28;96243;-76
2022/12/29 06:22:45;;;;;;;3.83;2.03;;;10.40;99.90;;;;;;4998647;28;95499;-76
2022/12/29 06:25:13;;;;;;;2.92;1.38;;;10.50;99.90;;;;;;4997982;28;95591;-76
2022/12/29 06:27:42;;;;;;;2.05;1.40;;;10.50;99.90;;;;;;4998608;28;92527;-76
2022/12/29 06:30:10;;;;;;;4.57;1.73;;;10.50;99.90;;;;;;4998912;28;96185;-76
2022/12/29 06:32:39;;;;;;;5.15;1.10;;;10.50;99.90;;;;;;4982249;28;95175;-76
2022/12/29 06:35:09;;;;;;;5.00;1.67;;;10.50;99.90;;;;;;4998985;28;92595;-76
2022/12/29 06:37:40;;;;;;;4.22;1.30;;;10.60;99.90;;;;;;4998539;28;92512;-76
2022/12/29 06:40:08;;;;;;;6.40;1.55;;;10.60;99.90;;;;;;4998537;28;93293;-76
2022/12/29 06:42:55;;;;;;;7.97;1.77;;;10.70;99.90;;;;;;5016081;28;93818;-76
2022/12/29 06:45:41;;;;;;;7.90;1.50;;;10.70;99.90;;;;;;5014935;28;92382;-76
2022/12/29 06:48:08;;;;;;;6.90;1.40;;;10.70;99.90;;;;;;4998653;28;92382;-76
2022/12/29 06:50:35;;;;;;;9.25;1.85;;;10.80;99.90;;;;;;5013963;28;95765;-76
2022/12/29 06:53:02;;;;;;;5.13;1.58;;;10.80;99.90;;;;;;5016539;28;95269;-76
2022/12/29 06:55:29;;;;;;;4.45;1.52;;;10.80;99.90;;;;;;4982082;28;92538;-76
2022/12/29 06:57:58;;;;;;;6.43;2.00;;;10.80;99.90;;;;;;5016689;28;92376;-76
2022/12/29 07:00:25;;;;;;;5.88;1.25;;;10.80;99.90;;;;;;5016195;28;93407;-76
2022/12/29 07:02:54;;;;;;;6.45;1.70;;;10.90;99.90;;;;;;4981394;28;95763;-76
2022/12/29 07:05:22;;;;;;;9.15;1.65;;;11.00;99.90;;;;;;5016406;28;92623;-76
2022/12/29 07:07:49;;;;;;;6.35;1.83;;;11.00;99.90;;;;;;4998347;28;91906;-76
2022/12/29 07:10:16;;;;;;;5.70;1.85;;;11.00;99.90;;;;;;4981763;28;95804;-76
2022/12/29 07:12:43;;;;;;;3.60;1.42;;;11.00;99.90;;;;;;5016165;28;93056;-76
2022/12/29 07:15:10;;;;;;;6.50;1.33;;;11.10;99.90;;;;;;4980603;28;95010;-76
2022/12/29 07:17:37;;;;;;;6.43;1.40;;;11.10;99.90;;;;;;4998291;28;92499;-76
2022/12/29 07:20:05;;;;;;;5.93;1.83;;;11.10;99.90;;;;;;5016208;28;93310;-76
2022/12/29 07:22:34;;;;;;;7.30;1.83;;;11.10;99.90;;;;;;4981574;28;96185;-76
2022/12/29 07:25:02;;;;;;;6.60;1.77;;;11.00;99.90;;;;;;4998042;28;100496;-76
2022/12/29 07:27:29;;;;;;;6.32;1.75;;;11.00;99.90;;;;;;4982072;28;92437;-76
2022/12/29 07:29:56;;;;;;;4.22;1.20;;;11.00;99.90;;;;;;4997514;28;95852;-76
2022/12/29 07:32:23;;;;;;;7.15;2.30;;;11.10;99.90;;;;;;5016385;28;92930;-76
2022/12/29 07:34:50;;;;;;;2.92;1.20;;;11.10;99.90;;;;;;5015816;28;92478;-76
2022/12/29 07:37:17;;;;;;;6.50;1.98;;;11.10;99.90;;;;;;4982148;28;92463;-76
2022/12/29 07:39:44;;;;;;;6.32;1.50;;;11.00;99.90;;;;;;4996023;28;96566;-76
2022/12/29 07:42:11;;;;;;;9.10;1.80;;;11.00;99.90;;;;;;5015688;28;95403;-76
2022/12/29 07:44:44;;;;;;;8.18;1.60;;;10.90;99.90;;;;;;4997529;28;92492;-76
2022/12/29 07:47:37;;;;;;;10.68;2.53;;;11.00;99.90;;;;;;4986145;28;92415;-76
2022/12/29 07:50:04;;;;;;;7.03;1.73;;;10.90;99.90;;;;;;4998042;28;93888;-76
2022/12/29 07:52:31;;;;;;;9.95;1.85;;;10.90;99.90;;;;;;5015724;28;93000;-76
2022/12/29 07:54:58;;;;;;;5.80;1.60;;;11.00;99.90;;;;;;5015686;28;92472;-76
2022/12/29 07:57:25;;;;;;;8.48;1.75;;;11.00;99.90;;;;;;4998222;28;91755;-76
2022/12/29 07:59:58;;;;;;;7.18;1.80;;;11.10;99.90;;;;;;5015382;28;92524;-76
2022/12/29 08:02:26;;;;;;;6.82;2.28;;;11.10;99.90;;;;;;5014968;28;93280;-76
2022/12/29 08:04:53;;;;;;;7.90;1.83;;;11.10;99.90;;;;;;4996665;28;95803;-76
2022/12/29 08:07:20;;;;;;;5.22;1.45;;;11.10;99.90;;;;;;4997641;28;92602;-76
2022/12/29 08:09:47;;;;;;;5.88;2.00;;;11.10;99.90;;;;;;4996980;28;95662;-76
2022/12/29 08:12:14;;;;;;;9.65;2.60;;;11.10;99.90;;;;;;4981143;28;93046;-76
2022/12/29 08:14:41;;;;;;;5.32;1.70;;;11.10;99.90;;;;;;4997056;28;92453;-76
2022/12/29 08:17:08;;;;;;;9.75;2.25;;;11.10;99.90;;;;;;4981472;28;92549;-76
2022/12/29 08:19:36;;;;;;;6.97;1.70;;;11.10;99.90;;;;;;4964417;28;96346;-76
2022/12/29 08:22:03;;;;;;;10.40;2.05;;;11.10;99.90;;;;;;4997403;28;95707;-76
2022/12/29 08:24:30;;;;;;;8.02;1.42;;;11.10;99.90;;;;;;4997455;28;93198;-76
2022/12/29 08:26:57;;;;;;;10.63;1.95;;;11.10;99.90;;;;;;4997181;28;94088;-76
2022/12/29 08:29:24;;;;;;;7.28;2.00;;;11.20;99.90;;;;;;4994677;28;97197;-76
2022/12/29 08:31:51;;;;;;;10.30;2.47;;;11.10;99.90;;;;;;4980143;28;95506;-76
2022/12/29 08:34:18;;;;;;;8.50;1.80;;;11.20;99.90;;;;;;4997828;28;92965;-76
2022/12/29 08:36:45;;;;;;;12.05;1.90;;;11.10;99.90;;;;;;5014924;28;92473;-76
2022/12/29 08:39:12;;;;;;;5.13;1.63;;;11.00;99.90;;;;;;4997237;28;93398;-76
2022/12/29 08:41:39;;;;;;;15.32;2.88;;;11.00;99.90;;;;;;4964120;28;95806;-77
2022/12/29 08:44:06;;;;;;;11.23;2.00;;;11.10;99.90;;;;;;4980578;28;93252;-76
2022/12/29 08:46:33;;;;;;;11.52;2.15;;;11.10;99.90;;;;;;4964713;28;91724;-76
2022/12/29 08:49:00;;;;;;;12.80;2.65;;;11.20;99.90;;;;;;4980279;28;93783;-76
2022/12/29 08:51:27;;;;;;;12.15;2.42;;;11.20;99.90;;;;;;4997109;28;93332;-76
2022/12/29 08:53:54;;;;;;;7.85;1.85;;;11.30;99.90;;;;;;4995676;28;95377;-77
2022/12/29 08:56:23;;;;;;;12.65;1.67;;;11.40;99.90;;;;;;4980392;28;92479;-76
2022/12/29 08:58:54;;;;;;;7.32;2.10;;;11.40;99.90;;;;;;4980452;28;95580;-76
2022/12/29 09:01:21;;;;;;;8.48;2.05;;;11.40;99.90;;;;;;4996795;28;95260;-76
2022/12/29 09:03:49;;;;;;;10.73;1.92;;;11.40;99.90;;;;;;5014721;28;92443;-76
2022/12/29 09:06:36;;;;;;;12.23;2.97;;;11.50;99.90;;;;;;5014411;28;92441;-76
2022/12/29 09:09:06;;;;;;;14.90;4.45;;;11.50;99.90;;;;;;4997229;28;93109;-76
2022/12/29 09:11:33;;;;;;;17.58;6.43;;;11.60;99.90;;;;;;5014984;28;93116;-76
2022/12/29 09:14:00;;;;;;;18.25;6.63;;;11.60;99.90;;;;;;4999051;28;93128;-76
2022/12/29 09:16:27;;;;;;;9.07;2.67;;;11.70;99.90;;;;;;5000367;28;92465;-76
2022/12/29 09:18:54;;;;;;;6.28;1.83;;;11.80;99.90;;;;;;4981986;28;97995;-76
2022/12/29 09:21:21;;;;;;;9.30;2.33;;;11.80;99.90;;;;;;4999841;28;95807;-76
2022/12/29 09:23:48;;;;;;;10.95;1.80;;;11.80;99.90;;;;;;4983999;28;92896;-76
2022/12/29 09:26:16;;;;;;;6.15;1.40;;;11.90;99.90;;;;;;5018038;28;92466;-76
2022/12/29 09:28:44;;;;;;;6.10;1.85;;;11.90;99.90;;;;;;5017553;28;93398;-76
2022/12/29 09:31:11;;;;;;;8.55;1.95;;;11.90;99.90;;;;;;4983180;28;94396;-76
2022/12/29 09:33:38;;;;;;;11.35;1.90;;;11.90;99.90;;;;;;4999951;28;92455;-76
2022/12/29 09:36:05;;;;;;;7.90;2.00;;;11.80;99.90;;;;;;4983768;28;91776;-76
2022/12/29 09:38:32;;;;;;;6.65;1.83;;;11.80;99.90;;;;;;4999951;28;92998;-76
2022/12/29 09:41:18;;;;;;;7.78;1.83;;;11.80;99.90;;;;;;4982758;28;95732;-76
2022/12/29 09:43:57;;;;;;;9.88;2.60;;;11.80;99.90;;;;;;4999002;28;94832;-76
2022/12/29 09:46:31;;;;;;;7.30;2.10;;;11.80;99.90;;;;;;5017815;28;92445;-76
2022/12/29 09:49:42;;;;;;;9.93;2.17;;;11.80;99.90;;;;;;4999754;28;93197;-76
2022/12/29 09:52:20;;;;;;;9.90;2.15;;;11.80;99.90;;;;;;4935620;28;95762;-77
2022/12/29 09:54:56;;;;;;;7.20;1.92;;;11.80;99.90;;;;;;4992623;28;92469;-76
2022/12/29 09:57:52;;;;;;;6.82;1.90;;;11.90;99.90;;;;;;4999562;28;92362;-76
2022/12/29 10:00:21;;;;;;;7.72;1.88;;;11.90;99.90;;;;;;4999106;28;95876;-76
2022/12/29 10:03:16;;;;;;;6.95;2.40;;;11.80;99.90;;;;;;5017451;28;91854;-76
2022/12/29 10:06:04;;;;;;;7.57;1.88;;;11.80;99.90;;;;;;5017543;28;92435;-76
2022/12/29 10:09:04;;;;;;;8.40;1.60;;;11.80;99.90;;;;;;5017297;28;92672;-76
2022/12/29 10:11:34;;;;;;;8.02;2.42;;;11.70;99.90;;;;;;4954428;28;98099;-76
2022/12/29 10:14:25;;;;;;;7.30;2.97;;;11.60;99.90;;;;;;4981999;28;98231;-76
2022/12/29 10:17:15;;;;;;;5.68;1.98;;;11.70;99.90;;;;;;4999206;28;92465;-76
2022/12/29 10:20:00;;;;;;;7.63;2.35;;;11.60;99.90;;;;;;5005709;28;92574;-76
2022/12/29 10:22:45;;;;;;;8.95;2.05;;;11.60;99.90;;;;;;4982475;28;94615;-76
2022/12/29 10:25:18;;;;;;;10.75;2.20;;;11.70;99.90;;;;;;5016489;28;93019;-76
2022/12/29 10:27:49;;;;;;;8.50;2.72;;;11.60;99.90;;;;;;4999652;28;92408;-76
2022/12/29 10:30:17;;;;;;;6.50;2.33;;;11.50;99.90;;;;;;4999296;28;91748;-76
2022/12/29 10:32:51;;;;;;;10.73;2.78;;;11.50;99.90;;;;;;4998763;28;95881;-76
2022/12/29 10:35:23;;;;;;;7.85;1.88;;;11.50;99.90;;;;;;5016718;28;93090;-76
2022/12/29 10:38:09;;;;;;;5.47;1.73;;;11.50;99.90;;;;;;5016062;28;94865;-76
2022/12/29 10:40:45;;;;;;;11.93;2.40;;;11.50;99.90;;;;;;4982118;28;92495;-76
2022/12/29 10:43:24;;;;;;;8.90;1.85;;;11.50;99.90;;;;;;5016487;28;93567;-76
2022/12/29 10:46:08;;;;;;;5.60;1.80;;;11.50;99.90;;;;;;4982064;28;95939;-76
2022/12/29 10:48:36;;;;;;;;;;;11.40;99.90;;;;;;4999180;28;92533;-76
2022/12/29 10:51:06;;;;;;;8.45;2.30;;;11.30;99.90;;;;;;4999317;28;97335;-76
2022/12/29 10:53:41;;;;;;;9.65;2.10;;;11.30;99.90;;;;;;4998587;28;93202;-76
2022/12/29 10:56:26;;;;;;;7.07;1.70;;;11.40;99.90;;;;;;5016865;28;93391;-76
2022/12/29 10:58:56;;;;;;;5.95;1.90;;;11.40;99.90;;;;;;4998641;28;93008;-76
2022/12/29 11:01:31;;;;;;;9.75;2.20;;;11.30;99.90;;;;;;5016144;28;92560;-76
2022/12/29 11:04:33;;;;;;;9.98;1.92;;;11.40;99.90;;;;;;5015315;28;95697;-76
2022/12/29 11:07:01;;;;;;;8.63;1.70;;;11.50;99.90;;;;;;4961873;28;98010;-76
2022/12/29 11:09:32;;;;;;;7.97;1.55;;;11.50;99.90;;;;;;4978398;28;92552;-77
2022/12/29 11:12:30;;;;;;;7.97;1.95;;;11.50;99.90;;;;;;4994758;28;92620;-77
2022/12/29 11:15:14;;;;;;;6.68;2.13;;;11.60;99.90;;;;;;4995174;28;93635;-77
2022/12/29 11:17:59;;;;;;;4.38;1.83;;;11.50;99.90;;;;;;4996145;28;93052;-77
2022/12/29 11:20:38;;;;;;;7.88;1.77;;;11.50;99.90;;;;;;4994755;28;92427;-77
2022/12/29 11:23:41;;;;;;;6.03;1.95;;;11.50;99.90;;;;;;4995109;28;91915;-77
2022/12/29 11:26:21;;;;;;;7.55;2.10;;;11.50;99.90;;;;;;4996148;28;93513;-77
2022/12/29 11:29:16;;;;;;;5.80;2.15;;;11.40;99.90;;;;;;4995883;28;92934;-77
2022/12/29 11:31:44;;;;;;;10.90;2.53;;;11.50;99.90;;;;;;4993844;28;94855;-77
2022/12/29 11:34:20;;;;;;;7.97;1.92;;;11.40;99.90;;;;;;4994649;28;92478;-77
2022/12/29 11:36:50;;;;;;;9.48;1.80;;;11.50;99.90;;;;;;4993650;28;96608;-77
2022/12/29 11:39:50;;;;;;;11.82;2.20;;;11.50;99.90;;;;;;4995462;28;92984;-77
2022/12/29 11:42:22;;;;;;;9.90;1.83;;;11.50;99.90;;;;;;4995481;28;93118;-77
2022/12/29 11:44:51;;;;;;;5.50;1.63;;;11.50;99.90;;;;;;4978093;28;92519;-77
2022/12/29 11:47:32;;;;;;;7.18;1.65;;;11.40;99.90;;;;;;4995259;28;99002;-77
2022/12/29 11:50:03;;;;;;;6.38;2.05;;;11.50;99.90;;;;;;4996129;28;93527;-77
2022/12/29 11:52:34;;;;;;;7.35;2.28;;;11.40;99.90;;;;;;4995934;28;92455;-77
2022/12/29 11:55:05;;;;;;;9.00;2.03;;;11.50;99.90;;;;;;4994501;28;92454;-77
2022/12/29 11:57:34;;;;;;;8.02;2.05;;;11.50;99.90;;;;;;4994300;28;95617;-76
2022/12/29 12:00:25;;;;;;;7.75;2.15;;;11.60;99.90;;;;;;4993779;28;97972;-77
2022/12/29 12:02:59;;;;;;;10.73;2.75;;;11.70;99.90;;;;;;4995417;28;92379;-77
2022/12/29 12:05:46;;;;;;;6.80;2.20;;;11.80;99.90;;;;;;4995592;28;92430;-77
2022/12/29 12:08:33;;;;;;;8.55;2.05;;;11.90;99.90;;;;;;4993982;28;93639;-77
2022/12/29 12:11:36;;;;;;;11.60;2.30;;;11.90;99.90;;;;;;4994637;28;93510;-77
2022/12/29 12:14:23;;;;;;;10.82;2.40;;;11.90;99.90;;;;;;4994235;28;92491;-76
2022/12/29 12:17:37;;;;;;;10.68;3.00;;;11.80;99.90;;;;;;4990295;28;93183;-76
2022/12/29 12:20:10;;;;;;;10.90;2.40;;;11.60;99.90;;;;;;4995495;28;93137;-76
2022/12/29 12:22:43;;;;;;;12.98;2.80;;;11.50;99.90;;;;;;4977241;28;95982;-76
2022/12/29 12:25:28;;;;;;;10.05;2.47;;;11.60;99.90;;;;;;4993248;28;94917;-76
2022/12/29 12:28:05;;;;;;;10.82;2.38;;;11.60;99.90;;;;;;4995176;28;92431;-76
2022/12/29 12:30:48;;;;;;;9.63;2.55;;;11.60;99.90;;;;;;4993995;28;92509;-76
2022/12/29 12:33:28;;;;;;;8.85;2.40;;;11.70;99.90;;;;;;4995028;28;93003;-76
2022/12/29 12:36:16;;;;;;;10.05;2.47;;;11.70;99.90;;;;;;4994167;28;92425;-76
2022/12/29 12:38:55;;;;;;;10.27;2.42;;;11.90;99.90;;;;;;4993530;28;92514;-76
2022/12/29 12:41:59;;;;;;;8.45;2.53;;;12.10;99.90;;;;;;4994639;28;94521;-76
2022/12/29 12:44:39;;;;;;;5.97;2.05;;;12.30;99.90;;;;;;4993943;28;95709;-76
2022/12/29 12:47:19;;;;;;;10.55;2.72;;;12.30;99.90;;;;;;4994070;28;92446;-76
2022/12/29 12:50:14;;;;;;;8.68;2.08;;;12.40;99.90;;;;;;4997249;28;92567;-77
2022/12/29 12:53:11;;;;;;;9.95;2.08;;;12.40;99.90;;;;;;4995404;28;98453;-76
2022/12/29 12:56:11;;;;;;;9.52;2.35;;;12.30;99.90;;;;;;4996683;28;98065;-76
2022/12/29 12:58:53;;;;;;;8.85;2.55;;;12.30;99.90;;;;;;4997112;28;92550;-77
2022/12/29 13:01:46;;;;;;;10.77;2.58;;;12.10;99.90;;;;;;4997272;28;92432;-76
2022/12/29 13:04:25;;;;;;;6.25;1.85;;;12.10;99.90;;;;;;4998322;28;93358;-77
2022/12/29 13:07:15;;;;;;;9.27;2.47;;;12.00;99.90;;;;;;5013034;28;95627;-76
2022/12/29 13:09:48;;;;;;;10.95;2.20;;;12.10;99.90;;;;;;4998253;28;92418;-77
2022/12/29 13:12:44;;;;;;;11.27;2.40;;;12.00;99.90;;;;;;5006775;28;91715;-82
2022/12/29 13:15:38;;;;;;;16.70;3.15;;;12.00;99.90;;;;;;5011192;28;93235;-81
2022/12/29 13:18:11;;;;;;;8.93;2.03;;;11.80;99.90;;;;;;5003202;28;95456;-79
2022/12/29 13:20:51;;;;;;;13.18;2.78;;;11.70;99.90;;;;;;5017328;28;95346;-80
2022/12/29 13:23:46;;;;;;;14.77;6.25;;;11.70;99.90;;;;;;5018210;28;92355;-81
2022/12/29 13:26:34;;;;;;;20.02;2.58;;;11.70;99.90;;;;;;5005171;28;93237;-81
2022/12/29 13:29:22;;;;;;;16.88;4.57;;;11.60;99.90;;;;;;5017787;28;93104;-80
2022/12/29 13:32:02;;;;;;;12.68;2.80;;;11.50;99.90;;;;;;5001566;28;92465;-79
2022/12/29 13:34:53;;;;;;;15.85;2.63;;;11.50;99.90;;;;;;5006641;28;92511;-81
2022/12/29 13:37:26;;;;;;;6.68;1.65;;;11.50;99.90;;;;;;5013955;28;94740;-78
2022/12/29 13:40:01;;;;;;;13.43;2.55;;;11.50;99.90;;;;;;4996115;28;95954;-80
2022/12/29 13:42:29;;;;;;;8.10;1.88;;;11.50;99.90;;;;;;5007404;28;92473;-82
2022/12/29 13:45:01;;;;;;;9.63;1.90;;;11.50;99.90;;;;;;4996484;28;92648;-76
2022/12/29 13:47:38;;;;;;;10.95;2.72;;;11.50;99.90;;;;;;5013458;28;97060;-78
2022/12/29 13:50:14;;;;;;;11.68;2.72;;;11.40;99.90;;;;;;5015397;28;97519;-78